Time;durP1;ratioP1;P1;durP2;ratioP2;P2;SDS_P1;SDS_P2;PMS_P1;PMS_P2;Temp;Humidity;BMP_temperature;BMP_pressure;BME280_temperature;BME280_humidity;BME280_pressure;Samples;Min_cycle;Max_cycle;Signal;HPM_P1;HPM_P2
2022/10/04 00:01:04;;;;;;;2.78;1.17;;;20.20;68.60;;;;;;5015234;28;20474;-66
2022/10/04 00:04:00;;;;;;;5.45;1.65;;;20.20;68.50;;;;;;5015543;28;20057;-67
2022/10/04 00:06:26;;;;;;;5.15;1.30;;;20.20;68.50;;;;;;5015364;28;20409;-66
2022/10/04 00:08:52;;;;;;;3.08;1.27;;;20.20;68.60;;;;;;5014955;28;20045;-66
2022/10/04 00:11:32;;;;;;;3.28;1.20;;;20.10;68.50;;;;;;4997656;28;20060;-67
2022/10/04 00:13:59;;;;;;;2.80;0.93;;;20.10;68.50;;;;;;5015296;28;20073;-67
2022/10/04 00:16:35;;;;;;;4.15;1.13;;;20.10;68.50;;;;;;4998097;28;20371;-66
2022/10/04 00:19:41;;;;;;;2.42;0.95;;;20.10;68.50;;;;;;5014431;28;20271;-66
2022/10/04 00:22:09;;;;;;;2.85;0.95;;;20.10;68.50;;;;;;4996984;28;20128;-67
2022/10/04 00:24:35;;;;;;;2.42;1.15;;;20.10;68.50;;;;;;5015767;28;20042;-68
2022/10/04 00:27:18;;;;;;;2.60;1.23;;;20.10;68.50;;;;;;4997700;28;20133;-67
2022/10/04 00:30:17;;;;;;;2.33;0.82;;;20.10;68.50;;;;;;5014748;28;20046;-67
2022/10/04 00:33:02;;;;;;;2.72;1.02;;;20.10;68.50;;;;;;5005310;28;20100;-67
2022/10/04 00:35:27;;;;;;;3.13;1.10;;;20.10;68.50;;;;;;5014374;28;20540;-67
2022/10/04 00:38:05;;;;;;;3.33;1.05;;;20.10;69.10;;;;;;5015253;28;20038;-66
2022/10/04 00:40:34;;;;;;;3.65;1.33;;;20.10;68.50;;;;;;5015200;28;20042;-67
2022/10/04 00:43:04;;;;;;;3.35;1.20;;;20.10;68.50;;;;;;5013046;28;20116;-67
2022/10/04 00:45:34;;;;;;;4.32;1.20;;;20.10;68.50;;;;;;4997680;28;20095;-67
2022/10/04 00:48:23;;;;;;;4.22;1.25;;;20.10;68.50;;;;;;5014957;28;20077;-67
2022/10/04 00:50:56;;;;;;;3.03;1.33;;;20.10;68.50;;;;;;5013261;28;20060;-67
2022/10/04 00:53:36;;;;;;;4.35;1.40;;;20.10;68.40;;;;;;4997007;28;20088;-67
2022/10/04 00:56:03;;;;;;;3.47;1.02;;;20.00;68.40;;;;;;5014871;28;20482;-67
2022/10/04 00:58:34;;;;;;;2.95;1.10;;;20.00;68.40;;;;;;4996061;28;20046;-67
2022/10/04 01:00:59;;;;;;;3.38;0.90;;;20.00;68.40;;;;;;5014818;28;20085;-67
2022/10/04 01:03:31;;;;;;;2.88;0.90;;;20.00;68.40;;;;;;4995956;28;20852;-67
2022/10/04 01:06:02;;;;;;;3.47;1.15;;;20.00;68.40;;;;;;5013626;28;20092;-67
2022/10/04 01:08:50;;;;;;;4.85;1.05;;;20.00;68.40;;;;;;4996394;28;20054;-66
2022/10/04 01:11:22;;;;;;;3.42;1.23;;;20.00;68.30;;;;;;4995824;28;20490;-66
2022/10/04 01:13:55;;;;;;;5.00;1.38;;;20.00;68.40;;;;;;5013395;28;20172;-67
2022/10/04 01:16:32;;;;;;;3.13;1.17;;;20.00;68.40;;;;;;5013169;28;20042;-67
2022/10/04 01:19:23;;;;;;;1.93;1.00;;;20.00;68.40;;;;;;5013665;28;20049;-67
2022/10/04 01:22:04;;;;;;;3.53;1.17;;;20.00;68.30;;;;;;5014458;28;20324;-67
2022/10/04 01:24:34;;;;;;;4.07;1.00;;;20.00;68.30;;;;;;5013505;28;20205;-67
2022/10/04 01:26:59;;;;;;;3.55;1.30;;;20.00;68.30;;;;;;4996657;28;20132;-67
2022/10/04 01:29:26;;;;;;;2.67;0.98;;;20.00;68.40;;;;;;5012340;28;20229;-67
2022/10/04 01:31:52;;;;;;;2.13;1.10;;;20.00;68.40;;;;;;5012175;28;20128;-66
2022/10/04 01:34:23;;;;;;;2.13;1.00;;;20.00;68.30;;;;;;4995786;28;20116;-67
2022/10/04 01:36:50;;;;;;;2.53;1.00;;;20.00;68.30;;;;;;5012855;28;20393;-67
2022/10/04 01:39:16;;;;;;;3.25;1.10;;;20.00;68.30;;;;;;4995520;28;20382;-67
2022/10/04 01:41:45;;;;;;;2.53;1.00;;;19.90;68.30;;;;;;5014007;28;20052;-66
2022/10/04 01:44:42;;;;;;;2.83;1.10;;;20.00;68.30;;;;;;5013890;28;20048;-67
2022/10/04 01:47:13;;;;;;;4.00;1.27;;;20.00;68.30;;;;;;4995146;28;20053;-67
2022/10/04 01:49:38;;;;;;;2.53;0.90;;;20.00;68.30;;;;;;4996793;28;20052;-66
2022/10/04 01:52:38;;;;;;;3.03;1.10;;;19.90;68.30;;;;;;5012476;28;20129;-66
2022/10/04 01:55:22;;;;;;;2.50;1.00;;;19.90;68.20;;;;;;5013646;28;20045;-66
2022/10/04 01:57:51;;;;;;;3.70;1.58;;;19.90;68.30;;;;;;4996486;28;20050;-67
2022/10/04 02:00:17;;;;;;;2.72;1.05;;;19.90;68.30;;;;;;5011515;28;20053;-67
2022/10/04 02:03:00;;;;;;;4.95;1.20;;;19.90;68.30;;;;;;4994798;28;20042;-67
2022/10/04 02:05:37;;;;;;;3.90;1.00;;;19.90;68.20;;;;;;5012965;28;20085;-66
2022/10/04 02:08:09;;;;;;;1.92;1.10;;;19.90;68.30;;;;;;5012881;28;20379;-66
2022/10/04 02:10:35;;;;;;;2.50;1.20;;;19.90;68.30;;;;;;5012042;28;20390;-66
2022/10/04 02:13:01;;;;;;;2.22;0.90;;;19.90;68.30;;;;;;5013341;28;20127;-66
2022/10/04 02:15:27;;;;;;;3.92;1.10;;;19.90;68.30;;;;;;4995086;28;20195;-67
2022/10/04 02:17:52;;;;;;;3.10;1.17;;;19.90;68.30;;;;;;5012216;28;20069;-67
2022/10/04 02:20:22;;;;;;;2.67;1.00;;;19.90;68.30;;;;;;5011013;28;20065;-67
2022/10/04 02:22:55;;;;;;;4.53;1.30;;;19.90;68.30;;;;;;4994933;28;20079;-66
2022/10/04 02:25:21;;;;;;;2.22;0.98;;;19.90;68.30;;;;;;5011822;28;20065;-67
2022/10/04 02:27:46;;;;;;;2.63;1.13;;;19.90;68.30;;;;;;5012539;28;20045;-67
2022/10/04 02:30:12;;;;;;;3.50;1.25;;;19.90;68.40;;;;;;5011710;28;20049;-67
2022/10/04 02:32:59;;;;;;;2.63;1.00;;;19.90;68.30;;;;;;4995768;28;20048;-67
2022/10/04 02:35:29;;;;;;;2.35;1.13;;;19.90;68.30;;;;;;5011978;28;20038;-67
2022/10/04 02:38:08;;;;;;;1.40;0.80;;;19.90;68.30;;;;;;5012165;28;20049;-67
2022/10/04 02:41:02;;;;;;;2.88;1.25;;;19.90;68.30;;;;;;5011910;28;20118;-67
2022/10/04 02:43:33;;;;;;;2.55;1.00;;;19.90;68.20;;;;;;4985212;28;20084;-67
2022/10/04 02:46:10;;;;;;;2.28;1.00;;;19.80;68.30;;;;;;4995716;28;20045;-67
2022/10/04 02:48:55;;;;;;;3.75;1.20;;;19.80;68.20;;;;;;5012671;28;20053;-67
2022/10/04 02:51:32;;;;;;;3.05;1.10;;;19.80;68.20;;;;;;4994788;28;20129;-67
2022/10/04 02:54:10;;;;;;;2.35;0.98;;;19.80;68.20;;;;;;4995386;28;20046;-67
2022/10/04 02:56:36;;;;;;;3.83;1.50;;;19.80;68.20;;;;;;5012196;28;20050;-67
2022/10/04 02:59:05;;;;;;;3.03;0.90;;;19.80;68.20;;;;;;4995055;28;20050;-67
2022/10/04 03:01:45;;;;;;;3.97;1.20;;;19.80;68.20;;;;;;5012298;28;20556;-67
2022/10/04 03:04:12;;;;;;;2.97;0.95;;;19.80;68.20;;;;;;5010597;28;20133;-67
2022/10/04 03:06:38;;;;;;;2.22;1.15;;;19.80;68.20;;;;;;5011479;28;20105;-66
2022/10/04 03:09:03;;;;;;;2.70;1.23;;;19.80;68.20;;;;;;5012635;28;20069;-66
2022/10/04 03:11:33;;;;;;;2.67;1.05;;;19.80;68.20;;;;;;5010304;28;20096;-67
2022/10/04 03:13:59;;;;;;;1.42;0.93;;;19.80;68.20;;;;;;4994769;28;20496;-67
2022/10/04 03:16:24;;;;;;;1.85;0.93;;;19.80;68.30;;;;;;4994855;28;20133;-66
2022/10/04 03:18:51;;;;;;;3.33;1.08;;;19.80;68.30;;;;;;5011433;28;20056;-67
2022/10/04 03:21:17;;;;;;;4.15;1.10;;;19.80;68.30;;;;;;5010459;28;20042;-66
2022/10/04 03:23:43;;;;;;;2.75;0.90;;;19.80;68.30;;;;;;5012594;28;20113;-67
2022/10/04 03:26:53;;;;;;;2.40;0.95;;;19.80;68.40;;;;;;5009905;28;20576;-67
2022/10/04 03:29:21;;;;;;;2.85;0.90;;;19.90;68.30;;;;;;4916313;29;20055;-66
2022/10/04 03:31:48;;;;;;;2.57;0.90;;;19.90;68.50;;;;;;4931666;29;20499;-66
2022/10/04 03:34:24;;;;;;;2.53;1.08;;;19.90;68.40;;;;;;4941749;28;20077;-66
2022/10/04 03:36:51;;;;;;;3.28;1.30;;;19.90;68.50;;;;;;4994824;28;20054;-66
2022/10/04 03:39:27;;;;;;;1.70;0.80;;;19.90;68.40;;;;;;5009764;28;20409;-66
2022/10/04 03:41:53;;;;;;;2.33;0.90;;;19.90;68.40;;;;;;5010176;28;20417;-66
2022/10/04 03:44:19;;;;;;;3.28;1.10;;;19.90;68.40;;;;;;5011618;28;20049;-66
2022/10/04 03:46:45;;;;;;;1.90;0.80;;;19.90;68.50;;;;;;4994030;28;20042;-67
2022/10/04 03:49:17;;;;;;;2.53;1.08;;;19.90;68.40;;;;;;5010396;28;20042;-67
2022/10/04 03:51:47;;;;;;;2.10;0.70;;;19.90;68.40;;;;;;5011064;28;20061;-67
2022/10/04 03:54:16;;;;;;;2.10;0.93;;;19.90;68.40;;;;;;5009579;28;20170;-67
2022/10/04 03:56:42;;;;;;;3.22;1.00;;;20.00;68.50;;;;;;5010967;28;20046;-66
2022/10/04 03:59:09;;;;;;;2.28;0.88;;;19.90;68.40;;;;;;5009622;28;20092;-66
2022/10/04 04:01:54;;;;;;;1.87;1.00;;;20.00;68.50;;;;;;5010826;28;20041;-66
2022/10/04 04:04:40;;;;;;;2.15;1.00;;;20.00;68.50;;;;;;4993112;28;20057;-66
2022/10/04 04:07:16;;;;;;;2.10;1.00;;;20.00;68.50;;;;;;5008865;28;20480;-66
2022/10/04 04:09:49;;;;;;;3.08;0.93;;;20.00;68.40;;;;;;5011743;28;20374;-66
2022/10/04 04:12:24;;;;;;;3.45;1.00;;;20.00;68.40;;;;;;5010230;28;20038;-66
2022/10/04 04:14:50;;;;;;;2.35;0.98;;;20.00;68.50;;;;;;4993889;28;20075;-66
2022/10/04 04:17:37;;;;;;;4.32;1.10;;;20.00;68.40;;;;;;5011428;28;20038;-66
2022/10/04 04:20:06;;;;;;;2.05;0.90;;;20.00;68.50;;;;;;5011818;28;20054;-67
2022/10/04 04:22:32;;;;;;;2.90;0.82;;;20.00;68.40;;;;;;5011887;28;20058;-67
2022/10/04 04:25:04;;;;;;;1.90;1.00;;;20.10;68.50;;;;;;5010741;28;20048;-67
2022/10/04 04:27:32;;;;;;;2.08;1.23;;;20.10;68.50;;;;;;5010782;28;20092;-67
2022/10/04 04:29:57;;;;;;;2.47;0.90;;;20.10;68.50;;;;;;5010838;28;20060;-68
2022/10/04 04:32:50;;;;;;;3.15;1.10;;;20.10;68.50;;;;;;5011401;28;20137;-66
2022/10/04 04:35:23;;;;;;;2.60;1.00;;;20.10;68.50;;;;;;5010485;28;20410;-66
2022/10/04 04:38:18;;;;;;;2.00;0.90;;;20.10;68.50;;;;;;5011867;28;20502;-67
2022/10/04 04:40:44;;;;;;;1.88;0.85;;;20.10;68.50;;;;;;5010394;28;20046;-67
2022/10/04 04:43:13;;;;;;;2.47;0.82;;;20.10;68.50;;;;;;5009434;28;20064;-67
2022/10/04 04:45:39;;;;;;;2.47;0.93;;;20.10;68.50;;;;;;5013954;28;20072;-67
2022/10/04 04:48:06;;;;;;;1.85;1.20;;;20.10;69.10;;;;;;5015206;28;20532;-66
2022/10/04 04:50:34;;;;;;;2.58;0.80;;;20.10;68.50;;;;;;5014466;28;20045;-66
2022/10/04 04:53:06;;;;;;;;;;;20.10;68.50;;;;;;4997849;28;20037;-66
2022/10/04 04:55:39;;;;;;;1.83;1.10;;;20.10;68.40;;;;;;5014736;28;19925;-67
2022/10/04 04:58:05;;;;;;;1.92;0.85;;;20.10;68.50;;;;;;5015290;28;20049;-67
2022/10/04 05:00:32;;;;;;;1.63;0.80;;;20.10;68.50;;;;;;5013729;28;20038;-67
2022/10/04 05:03:03;;;;;;;3.28;1.00;;;20.10;68.50;;;;;;5013001;28;20501;-66
2022/10/04 05:05:30;;;;;;;2.67;0.90;;;20.10;68.50;;;;;;5013181;28;20053;-66
2022/10/04 05:08:16;;;;;;;1.75;0.77;;;20.10;68.60;;;;;;5014705;28;20482;-66
2022/10/04 05:10:42;;;;;;;2.05;0.82;;;20.10;68.50;;;;;;5012610;28;20046;-66
2022/10/04 05:13:08;;;;;;;2.90;1.00;;;20.10;68.50;;;;;;5014300;28;20072;-66
2022/10/04 05:15:34;;;;;;;2.72;1.00;;;20.10;68.60;;;;;;4997328;28;20034;-66
2022/10/04 05:18:01;;;;;;;2.05;1.13;;;20.00;68.50;;;;;;5012814;28;20048;-66
2022/10/04 05:20:27;;;;;;;1.45;0.80;;;20.10;68.60;;;;;;5014294;28;20470;-66
2022/10/04 05:22:55;;;;;;;2.50;0.80;;;20.00;68.50;;;;;;5014654;28;20053;-66
2022/10/04 05:25:28;;;;;;;1.75;0.73;;;20.10;68.60;;;;;;5012189;28;20164;-65
2022/10/04 05:27:54;;;;;;;2.15;1.00;;;20.10;68.60;;;;;;5014191;28;20661;-65
2022/10/04 05:30:45;;;;;;;3.53;0.75;;;20.10;68.60;;;;;;5014122;28;20038;-65
2022/10/04 05:33:13;;;;;;;2.25;0.70;;;20.00;68.50;;;;;;5012552;28;20405;-65
2022/10/04 05:35:42;;;;;;;;;;;20.00;68.50;;;;;;5013482;28;20045;-65
2022/10/04 05:38:42;;;;;;;2.10;0.95;;;20.00;68.50;;;;;;5013185;28;19932;-65
2022/10/04 05:41:16;;;;;;;2.80;1.00;;;20.00;68.50;;;;;;4996333;28;20045;-65
2022/10/04 05:43:51;;;;;;;2.20;0.93;;;20.00;68.60;;;;;;5013069;28;20080;-65
2022/10/04 05:46:29;;;;;;;2.90;0.88;;;20.00;68.60;;;;;;5013107;28;20042;-66
2022/10/04 05:49:13;;;;;;;1.80;0.82;;;20.00;68.60;;;;;;5012567;28;20081;-65
2022/10/04 05:51:59;;;;;;;1.23;0.68;;;20.00;68.50;;;;;;5013333;28;20110;-65
2022/10/04 05:54:34;;;;;;;2.28;0.95;;;20.00;68.60;;;;;;5012403;28;20046;-65
2022/10/04 05:57:27;;;;;;;2.05;0.93;;;20.00;68.60;;;;;;5012625;28;20034;-65
2022/10/04 06:00:08;;;;;;;1.83;0.73;;;20.00;68.50;;;;;;5012081;28;20080;-66
2022/10/04 06:03:02;;;;;;;1.92;0.80;;;20.00;68.60;;;;;;5012855;28;20116;-65
2022/10/04 06:05:51;;;;;;;2.70;0.93;;;20.00;68.50;;;;;;5012061;28;20489;-66
2022/10/04 06:08:49;;;;;;;1.65;0.77;;;20.00;68.60;;;;;;4999509;28;20054;-66
2022/10/04 06:11:29;;;;;;;2.05;0.70;;;20.00;68.50;;;;;;5012159;28;20132;-67
2022/10/04 06:14:04;;;;;;;2.88;1.02;;;20.00;68.60;;;;;;5012844;28;20041;-66
2022/10/04 06:16:49;;;;;;;2.38;1.38;;;20.00;68.60;;;;;;5012260;28;20073;-66
2022/10/04 06:19:48;;;;;;;1.85;0.80;;;20.00;68.60;;;;;;5013141;28;20184;-66
2022/10/04 06:22:15;;;;;;;1.88;1.10;;;20.00;68.60;;;;;;4995819;28;20065;-66
2022/10/04 06:24:44;;;;;;;3.05;1.02;;;20.00;68.60;;;;;;4995994;28;20046;-66
2022/10/04 06:27:30;;;;;;;;;;;20.00;68.60;;;;;;5011462;28;20478;-66
2022/10/04 06:30:04;;;;;;;2.90;1.00;;;20.00;68.60;;;;;;5013155;28;19968;-66
2022/10/04 06:32:43;;;;;;;2.08;0.93;;;20.00;68.70;;;;;;5011444;28;20493;-66
2022/10/04 06:35:17;;;;;;;3.38;1.00;;;20.00;68.60;;;;;;5010476;28;20096;-66
2022/10/04 06:38:09;;;;;;;2.60;0.98;;;20.00;68.60;;;;;;5011825;28;20417;-65
2022/10/04 06:40:37;;;;;;;2.90;0.90;;;20.00;68.60;;;;;;5013063;28;20045;-66
2022/10/04 06:43:15;;;;;;;4.07;1.10;;;20.00;68.60;;;;;;5012357;28;20054;-66
2022/10/04 06:45:57;;;;;;;2.60;1.10;;;20.10;68.70;;;;;;5013203;28;20124;-65
2022/10/04 06:48:34;;;;;;;3.40;0.80;;;20.10;68.70;;;;;;5010425;28;20054;-66
2022/10/04 06:51:11;;;;;;;2.22;0.90;;;20.10;68.70;;;;;;5009700;28;20094;-62
2022/10/04 06:54:17;;;;;;;2.70;1.20;;;20.10;68.70;;;;;;5010231;28;20093;-65
2022/10/04 06:57:13;;;;;;;4.55;0.98;;;20.10;68.80;;;;;;5008673;28;20046;-62
2022/10/04 06:59:54;;;;;;;10.15;1.42;;;20.10;68.80;;;;;;5004897;28;20037;-63
2022/10/04 07:02:30;;;;;;;2.95;1.00;;;20.20;68.90;;;;;;4974728;28;20049;-64
2022/10/04 07:05:38;;;;;;;5.53;1.40;;;20.20;69.00;;;;;;4991898;28;20044;-62
2022/10/04 07:08:32;;;;;;;3.47;1.25;;;20.20;69.00;;;;;;4954798;28;20125;-63
2022/10/04 07:11:06;;;;;;;6.07;1.10;;;20.20;69.00;;;;;;4974972;28;20046;-63
2022/10/04 07:13:47;;;;;;;3.53;0.98;;;20.20;69.00;;;;;;4992996;28;20046;-63
2022/10/04 07:16:16;;;;;;;2.28;0.98;;;20.20;69.00;;;;;;4990921;28;20046;-63
2022/10/04 07:18:56;;;;;;;2.30;1.27;;;20.30;69.00;;;;;;4993022;28;20070;-63
2022/10/04 07:21:25;;;;;;;2.83;1.02;;;20.30;69.00;;;;;;4991496;28;20053;-63
2022/10/04 07:23:52;;;;;;;;;;;20.30;69.00;;;;;;4991572;28;20053;-63
2022/10/04 07:26:35;;;;;;;3.80;1.33;;;20.30;69.00;;;;;;4992697;28;19976;-63
2022/10/04 07:29:19;;;;;;;4.32;1.23;;;20.40;69.10;;;;;;4991904;28;20097;-62
2022/10/04 07:31:45;;;;;;;3.42;1.23;;;20.40;69.00;;;;;;4991286;28;20046;-63
2022/10/04 07:34:15;;;;;;;17.92;1.35;;;20.40;69.00;;;;;;4974969;28;20054;-63
2022/10/04 07:37:05;;;;;;;4.13;1.20;;;20.50;69.10;;;;;;4975224;28;20043;-63
2022/10/04 07:39:39;;;;;;;3.45;1.10;;;20.50;69.10;;;;;;4991600;28;20540;-63
2022/10/04 07:42:25;;;;;;;4.30;1.30;;;20.50;69.10;;;;;;4991507;28;20539;-63
2022/10/04 07:45:16;;;;;;;3.58;1.08;;;20.50;69.20;;;;;;4990573;28;20560;-63
2022/10/04 07:47:42;;;;;;;3.08;1.10;;;20.60;69.20;;;;;;4974904;28;20506;-62
2022/10/04 07:50:25;;;;;;;2.63;1.20;;;20.50;69.20;;;;;;4974767;28;20050;-63
2022/10/04 07:53:02;;;;;;;4.20;1.42;;;20.60;69.20;;;;;;4992093;28;20046;-62
2022/10/04 07:55:46;;;;;;;2.90;1.10;;;20.50;69.10;;;;;;4992337;28;20073;-63
2022/10/04 07:58:18;;;;;;;3.58;0.93;;;20.60;69.20;;;;;;4991485;28;20305;-62
2022/10/04 08:00:59;;;;;;;3.78;1.55;;;20.60;69.20;;;;;;4992742;28;20045;-63
2022/10/04 08:03:50;;;;;;;2.83;1.30;;;20.60;69.90;;;;;;4979312;28;20579;-63
2022/10/04 08:06:20;;;;;;;3.55;1.10;;;20.60;69.20;;;;;;5002424;28;20046;-63
2022/10/04 08:09:07;;;;;;;2.13;1.13;;;20.70;69.20;;;;;;5000114;28;20042;-62
2022/10/04 08:12:01;;;;;;;3.58;1.10;;;20.70;69.20;;;;;;5004759;28;20061;-63
2022/10/04 08:14:44;;;;;;;4.53;1.30;;;20.70;69.90;;;;;;5004369;28;20058;-62
2022/10/04 08:17:14;;;;;;;4.70;1.33;;;20.70;69.30;;;;;;5003691;28;20096;-63
2022/10/04 08:19:52;;;;;;;4.68;1.50;;;20.70;69.20;;;;;;5002104;28;20039;-62
2022/10/04 08:22:21;;;;;;;3.10;1.30;;;20.80;69.30;;;;;;5007186;28;20050;-62
2022/10/04 08:25:01;;;;;;;3.47;1.35;;;20.80;69.30;;;;;;5004346;28;20042;-63
2022/10/04 08:31:35;;;;;;;2.30;1.30;;;20.80;69.20;;;;;;5015591;28;20050;-63
2022/10/04 08:34:07;;;;;;;4.57;1.25;;;20.90;69.30;;;;;;4981666;28;20058;-63
2022/10/04 08:36:38;;;;;;;3.00;1.40;;;20.90;69.20;;;;;;5015426;28;20053;-62
2022/10/04 08:39:09;;;;;;;3.20;1.00;;;20.90;69.20;;;;;;4997839;28;20490;-63
2022/10/04 08:41:56;;;;;;;3.60;1.60;;;20.90;69.20;;;;;;5013427;28;20042;-63
2022/10/04 08:44:41;;;;;;;2.90;1.40;;;21.00;69.20;;;;;;5014051;28;20058;-63
2022/10/04 08:47:28;;;;;;;4.57;1.60;;;21.00;69.20;;;;;;5014839;28;20089;-63
2022/10/04 08:50:33;;;;;;;3.13;1.20;;;21.00;69.10;;;;;;5015256;28;20064;-62
2022/10/04 08:53:10;;;;;;;3.42;0.95;;;21.00;68.90;;;;;;5014324;28;20046;-63
2022/10/04 08:55:42;;;;;;;4.68;1.33;;;21.00;68.90;;;;;;5014577;28;20038;-63
2022/10/04 08:58:14;;;;;;;3.00;1.50;;;21.00;68.90;;;;;;4997112;28;20132;-63
2022/10/04 09:01:11;;;;;;;3.47;1.30;;;21.00;68.90;;;;;;5013642;28;20042;-63
2022/10/04 09:04:12;;;;;;;5.07;1.40;;;21.00;68.90;;;;;;5004905;28;20125;-64
2022/10/04 09:07:00;;;;;;;7.30;1.25;;;21.00;69.00;;;;;;4988816;28;20057;-63
2022/10/04 09:09:43;;;;;;;4.90;1.23;;;21.00;69.00;;;;;;4977443;28;20145;-63
2022/10/04 09:12:27;;;;;;;5.38;1.63;;;21.10;69.10;;;;;;4995485;28;20046;-63
2022/10/04 09:15:29;;;;;;;4.47;1.63;;;21.10;69.10;;;;;;4994783;28;20050;-63
2022/10/04 09:18:20;;;;;;;4.45;1.23;;;21.10;69.10;;;;;;4980477;28;20045;-63
2022/10/04 09:20:57;;;;;;;2.88;1.55;;;21.10;69.20;;;;;;4995224;28;20035;-63
2022/10/04 09:23:29;;;;;;;2.90;1.40;;;21.10;69.20;;;;;;4976575;28;20097;-62
2022/10/04 09:26:07;;;;;;;2.70;1.10;;;21.10;69.20;;;;;;4994488;28;20061;-63
2022/10/04 09:29:04;;;;;;;4.65;1.30;;;21.10;69.20;;;;;;4995128;28;20046;-63
2022/10/04 09:31:40;;;;;;;5.70;1.63;;;21.10;69.10;;;;;;4991691;28;20050;-64
2022/10/04 09:34:13;;;;;;;3.72;1.13;;;21.10;69.00;;;;;;4978364;28;20078;-64
2022/10/04 09:37:04;;;;;;;3.92;1.23;;;21.10;68.90;;;;;;4976934;28;20050;-64
2022/10/04 09:39:49;;;;;;;4.05;1.67;;;21.20;68.80;;;;;;4990363;28;20089;-64
2022/10/04 09:42:41;;;;;;;3.67;1.17;;;21.20;68.80;;;;;;4977680;28;20047;-64
2022/10/04 09:46:08;;;;;;;4.05;1.48;;;21.20;68.80;;;;;;4993948;28;20113;-63
2022/10/04 09:48:39;;;;;;;;;;;21.20;69.00;;;;;;4900467;29;20171;-63
2022/10/04 09:51:17;;;;;;;5.53;1.30;;;21.10;69.00;;;;;;4906560;29;19939;-63
2022/10/04 09:53:55;;;;;;;5.40;1.80;;;21.10;69.00;;;;;;4944006;28;20058;-63
2022/10/04 09:56:39;;;;;;;7.00;1.50;;;21.10;69.10;;;;;;4974847;28;20509;-63
2022/10/04 09:59:26;;;;;;;4.15;1.35;;;21.10;69.00;;;;;;4957452;28;20043;-63
2022/10/04 10:02:13;;;;;;;3.70;1.27;;;21.10;69.00;;;;;;4958048;28;20050;-63
2022/10/04 10:05:05;;;;;;;4.37;1.60;;;21.10;68.90;;;;;;4975135;28;20038;-63
2022/10/04 10:07:36;;;;;;;2.72;1.30;;;21.10;69.00;;;;;;4960338;28;20446;-65
2022/10/04 10:13:41;;;;;;;2.90;1.38;;;21.10;68.90;;;;;;4973895;28;20528;-64
2022/10/04 10:16:32;;;;;;;4.78;1.80;;;21.10;68.80;;;;;;4959449;28;20082;-64
2022/10/04 10:19:04;;;;;;;2.83;1.30;;;21.10;68.70;;;;;;4974221;28;20046;-64
2022/10/04 10:21:39;;;;;;;3.42;1.33;;;21.10;68.60;;;;;;4957272;28;20074;-64
2022/10/04 10:24:25;;;;;;;2.85;1.17;;;21.10;68.70;;;;;;4957420;28;20050;-64
2022/10/04 10:26:56;;;;;;;5.28;1.50;;;21.10;68.60;;;;;;4958101;28;20069;-64
2022/10/04 10:29:25;;;;;;;4.40;1.52;;;21.10;68.60;;;;;;4965075;28;20050;-65
2022/10/04 10:32:14;;;;;;;5.45;1.52;;;21.10;68.60;;;;;;4993948;28;20113;-65
2022/10/04 10:35:10;;;;;;;5.55;1.92;;;21.10;68.60;;;;;;4975959;28;20057;-65
2022/10/04 10:38:01;;;;;;;5.90;1.45;;;21.10;68.70;;;;;;4994279;28;20046;-66
2022/10/04 10:40:47;;;;;;;5.30;1.70;;;21.10;68.70;;;;;;4959565;28;20050;-65
2022/10/04 10:43:52;;;;;;;5.40;1.73;;;21.10;68.80;;;;;;4978220;28;20047;-66
2022/10/04 10:46:24;;;;;;;7.28;2.15;;;21.10;68.70;;;;;;4973947;28;20034;-63
2022/10/04 10:49:11;;;;;;;5.50;2.55;;;21.00;68.70;;;;;;4989834;28;20053;-63
2022/10/04 10:51:48;;;;;;;8.07;2.83;;;21.00;68.30;;;;;;4976498;28;20105;-63
2022/10/04 10:54:51;;;;;;;5.40;2.25;;;21.00;68.20;;;;;;4992568;28;20050;-63
2022/10/04 10:57:36;;;;;;;6.45;2.50;;;21.00;68.20;;;;;;4993641;28;20073;-63
2022/10/04 11:00:17;;;;;;;5.72;2.53;;;21.00;68.30;;;;;;4976409;28;20077;-63
2022/10/04 11:03:10;;;;;;;6.35;2.40;;;21.00;68.30;;;;;;4975920;28;20042;-63
2022/10/04 11:05:41;;;;;;;4.82;2.38;;;21.00;68.30;;;;;;4993456;28;20057;-63
2022/10/04 11:08:29;;;;;;;4.53;2.50;;;21.00;68.30;;;;;;4992633;28;20042;-63
2022/10/04 11:11:15;;;;;;;5.97;2.42;;;21.00;68.20;;;;;;4993702;28;20082;-63
2022/10/04 11:13:52;;;;;;;7.68;2.88;;;21.00;68.30;;;;;;4993715;28;20085;-62
2022/10/04 11:16:56;;;;;;;6.63;2.70;;;21.00;68.30;;;;;;4992234;28;20482;-63
2022/10/04 11:19:45;;;;;;;7.63;2.85;;;21.00;68.30;;;;;;4969425;28;20367;-63
2022/10/04 11:22:35;;;;;;;5.10;2.67;;;21.00;68.30;;;;;;4978063;28;20501;-63
2022/10/04 11:25:24;;;;;;;5.03;2.15;;;21.00;68.30;;;;;;4993519;28;20529;-63
2022/10/04 11:28:12;;;;;;;4.30;2.25;;;21.00;68.20;;;;;;4978751;28;20545;-63
2022/10/04 11:30:53;;;;;;;4.97;2.05;;;21.00;68.20;;;;;;4976131;28;20050;-63
2022/10/04 11:33:33;;;;;;;4.75;2.33;;;21.00;68.20;;;;;;4993072;28;20050;-63
2022/10/04 11:36:06;;;;;;;4.03;2.25;;;21.00;68.20;;;;;;4975846;28;20042;-63
2022/10/04 11:39:10;;;;;;;5.78;2.30;;;21.00;68.20;;;;;;4992441;28;20490;-63
2022/10/04 11:41:47;;;;;;;4.28;2.22;;;21.10;68.20;;;;;;4962552;28;20046;-63
2022/10/04 11:44:23;;;;;;;5.97;2.45;;;21.00;68.20;;;;;;4991986;28;20047;-61
2022/10/04 11:46:52;;;;;;;4.88;2.45;;;21.10;68.20;;;;;;4975499;28;20096;-62
2022/10/04 11:49:24;;;;;;;6.25;2.15;;;21.10;68.30;;;;;;4974329;28;20097;-63
2022/10/04 11:52:20;;;;;;;6.68;2.50;;;21.10;68.20;;;;;;4991573;28;20478;-64
2022/10/04 11:55:05;;;;;;;4.93;2.58;;;21.10;68.20;;;;;;4993016;28;20046;-61
2022/10/04 11:58:01;;;;;;;6.65;2.35;;;21.10;68.20;;;;;;4979150;28;20042;-63
2022/10/04 12:00:59;;;;;;;6.53;2.15;;;21.10;68.20;;;;;;4979512;28;20054;-62
2022/10/04 12:03:31;;;;;;;;;;;21.10;68.20;;;;;;4982332;28;20050;-62
2022/10/04 12:06:17;;;;;;;6.35;2.20;;;21.10;68.20;;;;;;4995910;28;20345;-64
2022/10/04 12:08:52;;;;;;;5.60;2.30;;;21.10;68.00;;;;;;4962946;28;20046;-62
2022/10/04 12:14:28;;;;;;;7.80;2.45;;;21.10;68.00;;;;;;4982397;28;20046;-62
2022/10/04 12:17:07;;;;;;;;;;;21.10;68.00;;;;;;4996921;28;20043;-61
2022/10/04 12:19:42;;;;;;;6.78;2.20;;;21.10;68.00;;;;;;4978248;28;19966;-62
2022/10/04 12:22:46;;;;;;;4.65;1.95;;;21.10;68.10;;;;;;4978905;28;20050;-62
2022/10/04 12:25:45;;;;;;;5.68;2.10;;;21.10;68.20;;;;;;4980639;28;20080;-62
2022/10/04 12:28:33;;;;;;;5.88;1.92;;;21.20;68.30;;;;;;4983415;28;20057;-62
2022/10/04 12:31:21;;;;;;;9.73;2.53;;;21.20;68.30;;;;;;4978642;28;20125;-62
2022/10/04 12:33:47;;;;;;;4.68;1.95;;;21.20;68.20;;;;;;4995613;28;20129;-61
2022/10/04 12:36:27;;;;;;;7.30;2.65;;;21.20;68.20;;;;;;4995910;28;20133;-62
2022/10/04 12:39:23;;;;;;;4.85;1.80;;;21.20;68.10;;;;;;4962557;28;20406;-62
2022/10/04 12:42:10;;;;;;;4.97;2.15;;;21.20;68.10;;;;;;4979160;28;20070;-62
2022/10/04 12:45:18;;;;;;;4.73;2.07;;;21.20;68.10;;;;;;4978803;28;20051;-63
2022/10/04 12:48:08;;;;;;;7.35;1.80;;;21.30;68.00;;;;;;4995091;28;20068;-65
2022/10/04 12:51:12;;;;;;;5.30;1.73;;;21.30;68.00;;;;;;4996295;28;20125;-62
2022/10/04 12:53:46;;;;;;;8.00;2.05;;;21.40;67.90;;;;;;4978037;28;20042;-63
2022/10/04 12:56:31;;;;;;;4.07;1.70;;;21.40;67.70;;;;;;4995557;28;20121;-65
2022/10/04 12:59:03;;;;;;;5.70;2.00;;;21.50;67.70;;;;;;4996064;28;20046;-65
2022/10/04 13:01:45;;;;;;;8.18;2.05;;;21.50;67.50;;;;;;4977865;28;20074;-63
2022/10/04 13:04:22;;;;;;;5.03;2.00;;;21.50;67.50;;;;;;4977586;28;20402;-64
2022/10/04 13:06:56;;;;;;;6.47;1.95;;;21.50;67.30;;;;;;4979238;28;20049;-71
2022/10/04 13:09:47;;;;;;;7.85;2.17;;;21.50;67.20;;;;;;4977573;28;20046;-71
2022/10/04 13:12:21;;;;;;;5.80;1.98;;;21.50;67.30;;;;;;4962821;28;20413;-74
2022/10/04 13:15:07;;;;;;;6.57;2.00;;;21.50;67.50;;;;;;4994891;28;20046;-73
2022/10/04 13:17:43;;;;;;;5.28;2.17;;;21.50;67.60;;;;;;4994764;28;20515;-72
2022/10/04 13:20:49;;;;;;;6.15;2.33;;;21.60;67.80;;;;;;4961855;28;20046;-73
2022/10/04 13:23:19;;;;;;;4.82;1.83;;;21.60;67.90;;;;;;4976946;28;20387;-72
2022/10/04 13:26:08;;;;;;;6.13;1.98;;;21.60;67.80;;;;;;4961951;28;20070;-72
2022/10/04 13:29:01;;;;;;;4.80;2.08;;;21.70;67.80;;;;;;4962951;28;20101;-71
2022/10/04 13:31:50;;;;;;;5.70;2.00;;;21.70;67.70;;;;;;4980862;28;20050;-76
2022/10/04 13:34:29;;;;;;;5.00;1.88;;;21.70;67.70;;;;;;4980062;28;20546;-75
2022/10/04 13:37:17;;;;;;;9.32;2.00;;;21.80;67.70;;;;;;4994616;28;20050;-74
2022/10/04 13:39:45;;;;;;;4.25;1.83;;;21.80;67.60;;;;;;4961691;28;20121;-74
2022/10/04 13:42:35;;;;;;;6.07;2.00;;;21.80;67.50;;;;;;4961172;28;20068;-73
2022/10/04 13:45:22;;;;;;;5.72;2.03;;;21.90;67.50;;;;;;4994412;28;20446;-75
2022/10/04 13:48:22;;;;;;;3.95;1.55;;;21.90;67.30;;;;;;4994855;28;20525;-75
2022/10/04 13:51:09;;;;;;;6.18;1.80;;;21.90;67.30;;;;;;4976868;28;20053;-75
2022/10/04 13:57:09;;;;;;;4.78;2.17;;;21.90;67.30;;;;;;4995081;28;20046;-74
2022/10/04 13:59:34;;;;;;;5.45;1.70;;;21.90;67.30;;;;;;4979161;28;20406;-75
2022/10/04 14:02:18;;;;;;;4.35;1.73;;;21.90;67.40;;;;;;4994641;28;20490;-73